Terminal Aerodrome Forecast
Issued by NWS

Home | Current Version | Previous Version | Text Only | Print | Product List | Glossary On
Versions: 1 2 3 4 5 6 7 8 9 10 11 12 13 14 15 16 17 18
000
FTUS46 KEKA 271139
TAFCEC
TAF
KCEC 271139Z 2712/2812 VRB03KT P6SM FEW003
      TEMPO 2712/2715 6SM BR BKN003
     FM271500 26006KT P6SM FEW007 BKN015
     FM272000 25006KT P6SM SCT015 BKN200
     FM280100 23005KT P6SM BKN015
     FM280300 19004KT 6SM BR BKN004 OVC015=

USA.gov is the U.S. government's official web portal to all federal, state and local government web resources and services.